| time (UTC) | temp C | wind direction | speed KPH | gust KPH | rain 1hr cm | rain 24hr cm | rain mn cm | humidity % | barometer mb |
| 20260505171845 | 2 | 10 | 6.4 | 9.7 | 0.00 | 1.02 | 1.02 | 96 | 1017.1 |
| 20260505171342 | 2 | 349 | 6.4 | 11.3 | 0.13 | 1.02 | 1.02 | 96 | 1017.4 |
| 20260505170838 | 2 | 3 | 8.0 | 11.3 | 0.13 | 1.02 | 1.02 | 96 | 1017.4 |
| 20260505170335 | 2 | 11 | 8.0 | 9.7 | 0.00 | 0.99 | 0.99 | 96 | 1017.2 |
| 20260505165831 | 2 | 27 | 4.8 | 8.0 | 0.00 | 0.99 | 0.99 | 96 | 1017.2 |
| 20260505165326 | 2 | 28 | 4.8 | 9.7 | 0.00 | 0.99 | 0.99 | 96 | 1017.4 |
| 20260505164822 | 2 | 20 | 6.4 | 9.7 | 0.18 | 0.99 | 0.99 | 96 | 1017.5 |
| 20260505164319 | 2 | 21 | 6.4 | 9.7 | 0.00 | 0.97 | 0.97 | 96 | 1017.1 |
| 20260505163818 | 2 | 29 | 4.8 | 4.8 | 0.00 | 0.97 | 0.97 | 96 | 1017.5 |
| 20260505163316 | 2 | 18 | 6.4 | 9.7 | 0.00 | 0.97 | 0.97 | 96 | 1017.4 |
| 20260505162814 | 2 | 6 | 4.8 | 9.7 | 0.00 | 0.97 | 0.97 | 96 | 1017.4 |
| 20260505162310 | 2 | 30 | 6.4 | 9.7 | 0.00 | 0.97 | 0.97 | 96 | 1017.4 |
| 20260505161807 | 2 | 26 | 4.8 | 9.7 | 0.00 | 0.97 | 0.97 | 95 | 1017.5 |
| 20260505161304 | 2 | 11 | 6.4 | 8.0 | 0.00 | 0.97 | 0.97 | 95 | 1017.5 |
| 20260505160802 | 2 | 13 | 1.6 | 4.8 | 0.00 | 0.97 | 0.97 | 95 | 1017.6 |
| 20260505160259 | 2 | 354 | 4.8 | 4.8 | 0.00 | 0.97 | 0.97 | 95 | 1017.6 |
| 20260505153238 | 2 | 42 | 0.0 | 1.6 | 0.00 | 0.94 | 0.94 | 95 | 1017.8 |
| 20260505152735 | 2 | 41 | 3.2 | 3.2 | 0.00 | 0.94 | 0.94 | 95 | 1017.8 |
| 20260505152231 | 2 | 39 | 3.2 | 4.8 | 0.00 | 0.94 | 0.94 | 95 | 1017.9 |
| 20260505151726 | 2 | 121 | 3.2 | 4.8 | 0.00 | 0.94 | 0.94 | 95 | 1017.8 |
| 20260505151224 | 2 | 90 | 3.2 | 4.8 | 0.00 | 0.94 | 0.94 | 95 | 1017.9 |
| 20260505150720 | 2 | 74 | 3.2 | 4.8 | 0.00 | 0.94 | 0.94 | 95 | 1017.8 |
| 20260505150217 | 2 | 106 | 3.2 | 4.8 | 0.00 | 0.94 | 0.94 | 95 | 1017.9 |
| 20260505140645 | 2 | 58 | 8.0 | 11.3 | 0.18 | 0.89 | 0.89 | 95 | 1017.8 |
| 20260505140142 | 2 | 48 | 8.0 | 12.9 | 0.00 | 0.86 | 0.86 | 95 | 1017.7 |
| 20260505130106 | 2 | 36 | 11.3 | 12.9 | 0.00 | 0.79 | 0.79 | 95 | 1017.4 |
| 20260505124555 | 2 | 22 | 11.3 | 16.1 | 0.13 | 0.79 | 0.79 | 95 | 1016.9 |
| 20260505124051 | 2 | 43 | 12.9 | 17.7 | 0.18 | 0.76 | 0.76 | 95 | 1016.8 |
| 20260505123548 | 2 | 32 | 11.3 | 16.1 | 0.30 | 0.76 | 0.76 | 95 | 1016.9 |
| 20260505123044 | 2 | 33 | 14.5 | 17.7 | 0.30 | 0.74 | 0.74 | 95 | 1017.1 |
| 20260505122541 | 2 | 31 | 14.5 | 17.7 | 0.13 | 0.69 | 0.69 | 95 | 1017.2 |
| 20260505122038 | 2 | 11 | 14.5 | 17.7 | 0.13 | 0.69 | 0.69 | 95 | 1016.9 |
| 20260505121535 | 2 | 25 | 12.9 | 14.5 | 0.00 | 0.66 | 0.66 | 95 | 1016.9 |
| 20260505121032 | 2 | 35 | 16.1 | 20.9 | 0.18 | 0.66 | 0.66 | 95 | 1016.9 |
| 20260505120528 | 2 | 25 | 11.3 | 14.5 | 0.18 | 0.66 | 0.66 | 95 | 1016.7 |
| 20260505120023 | 2 | 15 | 12.9 | 20.9 | 0.13 | 0.64 | 0.64 | 95 | 1016.8 |
| 20260505115518 | 2 | 2 | 12.9 | 17.7 | 0.13 | 0.64 | 0.64 | 94 | 1016.7 |
| 20260505115016 | 2 | 13 | 14.5 | 17.7 | 0.18 | 0.61 | 0.61 | 94 | 1016.7 |
| 20260505114513 | 2 | 12 | 11.3 | 20.9 | 0.00 | 0.58 | 0.58 | 94 | 1016.7 |
| 20260505114009 | 2 | 2 | 16.1 | 20.9 | 0.13 | 0.58 | 0.58 | 94 | 1016.4 |
| 20260505113506 | 2 | 1 | 9.7 | 17.7 | 0.18 | 0.56 | 0.56 | 94 | 1016.5 |
| 20260505113002 | 2 | 357 | 12.9 | 16.1 | 0.36 | 0.56 | 0.56 | 94 | 1016.4 |
| 20260505112459 | 2 | 3 | 16.1 | 20.9 | 0.30 | 0.53 | 0.53 | 93 | 1016.5 |
| 20260505111956 | 2 | 4 | 12.9 | 17.7 | 0.30 | 0.51 | 0.51 | 93 | 1016.5 |
| 20260505111450 | 3 | 355 | 8.0 | 12.9 | 0.18 | 0.48 | 0.48 | 93 | 1016.2 |
| 20260505110946 | 3 | 21 | 17.7 | 17.7 | 0.13 | 0.46 | 0.46 | 93 | 1016.0 |
| 20260505110443 | 3 | 34 | 14.5 | 22.5 | 0.30 | 0.46 | 0.46 | 93 | 1016.0 |
| 20260505101914 | 4 | 21 | 17.7 | 24.1 | 0.30 | 0.30 | 0.30 | 92 | 1015.6 |
| 20260505101409 | 4 | 20 | 12.9 | 20.9 | 0.30 | 0.28 | 0.28 | 92 | 1015.4 |
| 20260505100905 | 4 | 21 | 19.3 | 25.7 | 0.30 | 0.25 | 0.25 | 92 | 1015.1 |
| 20260505100402 | 4 | 357 | 16.1 | 25.7 | 0.36 | 0.23 | 0.23 | 92 | 1014.9 |
| 20260505095857 | 5 | 33 | 14.5 | 16.1 | 0.18 | 0.20 | 0.20 | 91 | 1014.9 |
| 20260505095355 | 5 | 20 | 11.3 | 20.9 | 0.00 | 0.18 | 0.18 | 91 | 1014.9 |
| 20260505094851 | 5 | 39 | 14.5 | 22.5 | 0.00 | 0.18 | 0.18 | 91 | 1015.1 |
| 20260505094348 | 5 | 23 | 14.5 | 20.9 | 0.13 | 0.18 | 0.18 | 91 | 1014.9 |
| 20260505093844 | 5 | 44 | 14.5 | 20.9 | 0.13 | 0.18 | 0.18 | 91 | 1014.8 |
| 20260505093341 | 5 | 37 | 16.1 | 17.7 | 0.18 | 0.15 | 0.15 | 90 | 1014.4 |
| 20260505092838 | 5 | 37 | 20.9 | 25.7 | 0.18 | 0.15 | 0.15 | 91 | 1014.6 |
| 20260505092337 | 5 | 48 | 14.5 | 20.9 | 0.00 | 0.13 | 0.13 | 91 | 1014.6 |
| 20260505091833 | 5 | 48 | 17.7 | 22.5 | 0.00 | 0.13 | 0.13 | 91 | 1014.6 |
| 20260505091331 | 5 | 51 | 14.5 | 17.7 | 0.13 | 0.13 | 0.13 | 91 | 1014.6 |
| 20260505090829 | 5 | 49 | 24.1 | 27.4 | 0.13 | 0.13 | 0.13 | 91 | 1014.3 |
| 20260505090327 | 5 | 45 | 14.5 | 22.5 | 0.00 | 0.10 | 0.10 | 91 | 1014.2 |
| 20260505085824 | 5 | 47 | 22.5 | 24.1 | 0.00 | 0.10 | 0.10 | 91 | 1014.1 |
| 20260505085322 | 5 | 46 | 14.5 | 22.5 | 0.00 | 0.10 | 0.10 | 91 | 1014.4 |
| 20260505084819 | 5 | 47 | 17.7 | 24.1 | 0.00 | 0.10 | 0.10 | 92 | 1014.3 |
| 20260505084318 | 5 | 57 | 22.5 | 33.8 | 0.00 | 0.10 | 0.10 | 92 | 1014.2 |
| 20260505083814 | 5 | 65 | 16.1 | 25.7 | 0.00 | 0.10 | 0.10 | 92 | 1014.2 |
| 20260505083312 | 5 | 72 | 17.7 | 27.4 | 0.18 | 0.10 | 0.10 | 92 | 1014.1 |
| 20260505082808 | 6 | 60 | 22.5 | 27.4 | 0.18 | 0.10 | 0.10 | 92 | 1014.2 |
| 20260505082305 | 6 | 49 | 16.1 | 16.1 | 0.00 | 0.08 | 0.08 | 92 | 1014.2 |
| 20260505081801 | 6 | 67 | 17.7 | 24.1 | 0.00 | 0.08 | 0.08 | 91 | 1014.4 |
| 20260505081258 | 6 | 40 | 19.3 | 25.7 | 0.13 | 0.08 | 0.08 | 91 | 1014.2 |
| 20260505080755 | 6 | 31 | 17.7 | 24.1 | 0.13 | 0.08 | 0.08 | 90 | 1014.1 |
| 20260505080250 | 8 | 40 | 14.5 | 20.9 | 0.18 | 0.05 | 0.05 | 90 | 1014.0 |
| 20260505075746 | 8 | 33 | 12.9 | 14.5 | 0.18 | 0.05 | 0.05 | 88 | 1014.2 |
| 20260505075244 | 8 | 41 | 6.4 | 11.3 | 0.13 | 0.03 | 0.03 | 86 | 1014.6 |
| 20260505074741 | 8 | 40 | 6.4 | 8.0 | 0.13 | 0.03 | 0.03 | 85 | 1014.4 |
| 20260505074238 | 8 | 75 | 6.4 | 8.0 | 0.00 | 0.00 | 0.00 | 83 | 1014.4 |
| 20260505073735 | 8 | 86 | 4.8 | 4.8 | 0.00 | 0.00 | 0.00 | 83 | 1014.4 |
| 20260505073233 | 8 | 67 | 3.2 | 4.8 | 0.00 | 0.00 | 0.00 | 84 | 1014.3 |
| 20260505072730 | 8 | 53 | 4.8 | 4.8 | 0.00 | 0.00 | 0.00 | 84 | 1014.6 |
| 20260505072226 | 8 | 49 | 3.2 | 3.2 | 0.00 | 0.00 | 0.00 | 84 | 1014.7 |
| 20260505071721 | 8 | 60 | 3.2 | 4.8 | 0.00 | 0.00 | 0.00 | 84 | 1014.6 |
| 20260505071219 | 8 | 72 | 3.2 | 3.2 | 0.00 | 0.00 | 0.00 | 85 | 1014.3 |
| 20260505070716 | 8 | 78 | 1.6 | 4.8 | 0.00 | 0.00 | 0.00 | 86 | 1014.3 |
| 20260505070212 | 8 | 105 | 8.0 | 9.7 | 0.00 | 0.00 | 0.00 | 87 | 1014.3 |
| 20260505065708 | 8 | 123 | 8.0 | 8.0 | 0.00 | 0.00 | 0.00 | 88 | 1014.1 |
| 20260505065205 | 8 | 111 | 6.4 | 9.7 | 0.00 | 0.00 | 0.00 | 89 | 1014.1 |
| 20260505064702 | 8 | 106 | 6.4 | 11.3 | 0.00 | 0.00 | 0.00 | 90 | 1014.0 |
| 20260505064200 | 8 | 134 | 6.4 | 9.7 | 0.00 | 0.00 | 0.00 | 91 | 1014.0 |
| 20260505063657 | 8 | 117 | 4.8 | 4.8 | 0.00 | 0.00 | 0.00 | 92 | 1014.1 |
| 20260505063153 | 8 | 125 | 4.8 | 11.3 | 0.00 | 0.00 | 0.00 | 92 | 1014.1 |
| 20260505062649 | 8 | 145 | 8.0 | 9.7 | 0.00 | 0.00 | 0.00 | 93 | 1014.1 |
| 20260505062147 | 8 | 130 | 8.0 | 9.7 | 0.00 | 0.00 | 0.00 | 93 | 1014.1 |
| 20260505061644 | 8 | 141 | 3.2 | 8.0 | 0.00 | 0.00 | 0.00 | 94 | 1014.2 |
| 20260505061142 | 9 | 108 | 4.8 | 8.0 | 0.00 | 0.00 | 0.00 | 94 | 1014.1 |
| 20260505060639 | 8 | 90 | 3.2 | 3.2 | 0.00 | 0.00 | 0.00 | 94 | 1014.2 |
| 20260505060136 | 8 | 111 | 1.6 | 3.2 | 0.00 | 0.00 | 0.00 | 94 | 1014.0 |
| 20260505055631 | 8 | 123 | 3.2 | 3.2 | 0.00 | 0.46 | 0.46 | 94 | 1014.1 |
| 20260505055128 | 8 | 182 | 1.6 | 1.6 | 0.00 | 0.46 | 0.46 | 94 | 1014.1 |
| 20260505054626 | 8 | 208 | 1.6 | 3.2 | 0.00 | 0.46 | 0.46 | 94 | 1014.0 |
| 20260505054124 | 8 | 200 | 3.2 | 3.2 | 0.00 | 0.46 | 0.46 | 93 | 1013.9 |
| 20260505053621 | 8 | 249 | 3.2 | 3.2 | 0.00 | 0.46 | 0.46 | 93 | 1013.8 |
| 20260505053117 | 8 | 196 | 0.0 | 1.6 | 0.00 | 0.46 | 0.46 | 93 | 1013.8 |
| 20260505052614 | 8 | 185 | 1.6 | 1.6 | 0.00 | 0.46 | 0.46 | 93 | 1014.0 |
| 20260505052112 | 8 | 235 | 1.6 | 3.2 | 0.00 | 0.46 | 0.46 | 93 | 1014.0 |
| 20260505051608 | 8 | 224 | 3.2 | 3.2 | 0.00 | 0.46 | 0.46 | 93 | 1013.8 |
| 20260505051107 | 8 | 214 | 4.8 | 4.8 | 0.00 | 0.46 | 0.46 | 93 | 1013.9 |
| 20260505050604 | 8 | 198 | 4.8 | 8.0 | 0.00 | 0.46 | 0.46 | 93 | 1013.8 |
| 20260505041532 | 9 | 224 | 4.8 | 8.0 | 0.30 | 0.43 | 0.43 | 92 | 1014.0 |
| 20260505041029 | 9 | 196 | 4.8 | 8.0 | 0.30 | 0.41 | 0.41 | 91 | 1014.0 |
| 20260505040526 | 9 | 209 | 6.4 | 8.0 | 0.18 | 0.36 | 0.36 | 91 | 1014.0 |
| 20260505040024 | 9 | 214 | 4.8 | 8.0 | 0.36 | 0.36 | 0.36 | 90 | 1014.0 |
| 20260505035519 | 9 | 241 | 6.4 | 8.0 | 0.30 | 0.33 | 0.33 | 90 | 1014.0 |
| 20260505035016 | 9 | 246 | 8.0 | 9.7 | 0.30 | 0.30 | 0.30 | 89 | 1014.2 |
| 20260505034513 | 9 | 267 | 8.0 | 11.3 | 0.18 | 0.28 | 0.28 | 88 | 1014.2 |
| 20260505034010 | 9 | 273 | 9.7 | 12.9 | 0.30 | 0.25 | 0.25 | 87 | 1014.0 |
| 20260505033507 | 9 | 275 | 8.0 | 12.9 | 0.43 | 0.25 | 0.25 | 87 | 1014.0 |
| 20260505033005 | 9 | 287 | 8.0 | 16.1 | 0.30 | 0.20 | 0.20 | 86 | 1013.8 |
| 20260505032502 | 10 | 295 | 9.7 | 12.9 | 0.30 | 0.18 | 0.18 | 85 | 1014.0 |
| 20260505031958 | 10 | 270 | 11.3 | 14.5 | 0.30 | 0.15 | 0.15 | 84 | 1013.8 |
| 20260505031455 | 10 | 262 | 11.3 | 14.5 | 0.30 | 0.13 | 0.13 | 82 | 1013.6 |
| 20260505030952 | 10 | 279 | 6.4 | 8.0 | 0.30 | 0.10 | 0.10 | 80 | 1013.9 |
| 20260505030448 | 10 | 347 | 1.6 | 3.2 | 0.30 | 0.08 | 0.08 | 79 | 1013.5 |
| 20260505025943 | 10 | 4 | 1.6 | 3.2 | 0.13 | 0.05 | 0.05 | 78 | 1013.4 |
| 20260505025441 | 10 | 12 | 3.2 | 3.2 | 0.00 | 0.03 | 0.03 | 77 | 1013.2 |
| 20260505024940 | 11 | 26 | 3.2 | 4.8 | 0.00 | 0.03 | 0.03 | 75 | 1013.2 |
| 20260505024437 | 11 | 16 | 3.2 | 4.8 | 0.00 | 0.03 | 0.03 | 73 | 1013.1 |
| 20260505023934 | 11 | 0 | 4.8 | 8.0 | 0.00 | 0.03 | 0.03 | 71 | 1012.8 |
| 20260505023431 | 11 | 10 | 8.0 | 11.3 | 0.00 | 0.03 | 0.03 | 70 | 1012.7 |
| 20260505022928 | 11 | 0 | 11.3 | 12.9 | 0.00 | 0.03 | 0.03 | 72 | 1012.6 |
| 20260505022426 | 11 | 359 | 6.4 | 8.0 | 0.00 | 0.03 | 0.03 | 72 | 1012.7 |
| 20260505021922 | 11 | 8 | 6.4 | 9.7 | 0.00 | 0.03 | 0.03 | 71 | 1012.6 |
| 20260505021419 | 11 | 345 | 8.0 | 11.3 | 0.18 | 0.03 | 0.03 | 69 | 1012.7 |
| 20260505020915 | 12 | 357 | 8.0 | 11.3 | 0.18 | 0.03 | 0.03 | 69 | 1012.9 |
| 20260505020410 | 11 | 330 | 8.0 | 9.7 | 0.00 | 0.00 | 0.00 | 74 | 1013.1 |
| 20260505015908 | 11 | 333 | 6.4 | 9.7 | 0.00 | 0.00 | 0.00 | 72 | 1012.9 |
| 20260505015405 | 11 | 323 | 6.4 | 8.0 | 0.00 | 0.00 | 0.00 | 75 | 1012.9 |
| 20260505014902 | 11 | 313 | 4.8 | 4.8 | 0.00 | 0.00 | 0.00 | 75 | 1012.8 |
| 20260505014359 | 11 | 323 | 6.4 | 8.0 | 0.00 | 0.00 | 0.00 | 75 | 1012.7 |
| 20260505013855 | 11 | 341 | 4.8 | 11.3 | 0.00 | 0.00 | 0.00 | 75 | 1012.7 |
| 20260505013352 | 11 | 320 | 8.0 | 12.9 | 0.00 | 0.00 | 0.00 | 73 | 1012.9 |
| 20260505012851 | 12 | 319 | 19.3 | 22.5 | 0.00 | 0.00 | 0.00 | 66 | 1012.7 |
| 20260505012349 | 14 | 335 | 11.3 | 14.5 | 0.00 | 0.00 | 0.00 | 51 | 1012.4 |
| 20260505011844 | 14 | 310 | 6.4 | 8.0 | 0.00 | 0.00 | 0.00 | 49 | 1012.4 |
| 20260505011341 | 14 | 339 | 6.4 | 9.7 | 0.00 | 0.00 | 0.00 | 49 | 1012.5 |
| 20260505010837 | 14 | 337 | 12.9 | 17.7 | 0.00 | 0.00 | 0.00 | 48 | 1012.2 |
| 20260505010333 | 14 | 341 | 14.5 | 17.7 | 0.00 | 0.00 | 0.00 | 49 | 1012.1 |
| 20260505005830 | 15 | 341 | 17.7 | 22.5 | 0.00 | 0.00 | 0.00 | 48 | 1011.8 |
| 20260505005327 | 15 | 353 | 11.3 | 14.5 | 0.00 | 0.00 | 0.00 | 47 | 1011.7 |
| 20260505004824 | 15 | 4 | 8.0 | 14.5 | 0.00 | 0.00 | 0.00 | 48 | 1011.7 |
| 20260505004320 | 15 | 23 | 11.3 | 12.9 | 0.00 | 0.00 | 0.00 | 49 | 1011.7 |
| 20260505003818 | 15 | 0 | 16.1 | 16.1 | 0.00 | 0.00 | 0.00 | 48 | 1011.8 |
| 20260505003315 | 15 | 11 | 11.3 | 16.1 | 0.00 | 0.00 | 0.00 | 48 | 1011.7 |
| 20260505002811 | 15 | 3 | 11.3 | 16.1 | 0.00 | 0.00 | 0.00 | 50 | 1011.7 |
| 20260505002308 | 15 | 15 | 16.1 | 17.7 | 0.00 | 0.00 | 0.00 | 49 | 1011.7 |
| 20260505001806 | 15 | 18 | 16.1 | 22.5 | 0.00 | 0.00 | 0.00 | 48 | 1011.8 |
| 20260505001303 | 15 | 2 | 16.1 | 24.1 | 0.00 | 0.00 | 0.00 | 48 | 1011.5 |
| 20260505000800 | 15 | 8 | 14.5 | 17.7 | 0.00 | 0.00 | 0.00 | 48 | 1011.7 |
| 20260505000258 | 15 | 1 | 14.5 | 20.9 | 0.00 | 0.00 | 0.00 | 50 | 1011.7 |
| 20260504235754 | 14 | 5 | 12.9 | 16.1 | 0.00 | 0.00 | 0.00 | 51 | 1011.4 |
| 20260504235250 | 15 | 357 | 19.3 | 20.9 | 0.00 | 0.00 | 0.00 | 50 | 1011.8 |
| 20260504234748 | 16 | 7 | 16.1 | 25.7 | 0.00 | 0.00 | 0.00 | 44 | 1011.8 |
| 20260504234245 | 16 | 352 | 8.0 | 9.7 | 0.00 | 0.00 | 0.00 | 39 | 1011.8 |
| 20260504233741 | 16 | 348 | 12.9 | 14.5 | 0.00 | 0.00 | 0.00 | 39 | 1011.7 |
| 20260504233237 | 16 | 356 | 14.5 | 16.1 | 0.00 | 0.00 | 0.00 | 41 | 1011.5 |
| 20260504232735 | 16 | 309 | 4.8 | 9.7 | 0.00 | 0.00 | 0.00 | 42 | 1011.5 |
| 20260504232231 | 16 | 282 | 8.0 | 12.9 | 0.00 | 0.00 | 0.00 | 49 | 1011.5 |
| 20260504231728 | 16 | 264 | 30.6 | 37.0 | 0.00 | 0.00 | 0.00 | 39 | 1011.7 |
| 20260504231225 | 17 | 295 | 20.9 | 27.4 | 0.00 | 0.00 | 0.00 | 39 | 1011.2 |
| 20260504230721 | 17 | 330 | 11.3 | 14.5 | 0.00 | 0.00 | 0.00 | 34 | 1011.2 |
| 20260504230220 | 17 | 345 | 12.9 | 16.1 | 0.00 | 0.00 | 0.00 | 34 | 1011.1 |
| 20260504225718 | 17 | 339 | 9.7 | 12.9 | 0.00 | 0.00 | 0.00 | 34 | 1011.2 |
| 20260504225214 | 17 | 347 | 8.0 | 14.5 | 0.00 | 0.00 | 0.00 | 35 | 1010.9 |
| 20260504224711 | 17 | 6 | 14.5 | 16.1 | 0.00 | 0.00 | 0.00 | 34 | 1010.7 |
| 20260504224209 | 17 | 10 | 11.3 | 16.1 | 0.00 | 0.00 | 0.00 | 34 | 1010.6 |
| 20260504223704 | 17 | 9 | 11.3 | 12.9 | 0.00 | 0.00 | 0.00 | 34 | 1010.5 |
| 20260504223200 | 17 | 27 | 9.7 | 14.5 | 0.00 | 0.00 | 0.00 | 33 | 1010.5 |
| 20260504222657 | 17 | 52 | 12.9 | 17.7 | 0.00 | 0.00 | 0.00 | 32 | 1010.2 |
| 20260504222154 | 17 | 31 | 16.1 | 20.9 | 0.00 | 0.00 | 0.00 | 32 | 1010.3 |
| 20260504221651 | 17 | 33 | 12.9 | 27.4 | 0.00 | 0.00 | 0.00 | 32 | 1010.3 |
| 20260504221149 | 18 | 4 | 14.5 | 25.7 | 0.00 | 0.00 | 0.00 | 32 | 1010.3 |
| 20260504220645 | 18 | 23 | 14.5 | 20.9 | 0.00 | 0.00 | 0.00 | 31 | 1010.2 |
| 20260504220143 | 18 | 358 | 12.9 | 22.5 | 0.00 | 0.00 | 0.00 | 32 | 1010.2 |
| 20260504215638 | 18 | 17 | 25.7 | 32.2 | 0.00 | 0.00 | 0.00 | 32 | 1010.5 |
| 20260504215136 | 19 | 13 | 30.6 | 35.4 | 0.00 | 0.00 | 0.00 | 30 | 1010.3 |
| 20260504214632 | 20 | 27 | 20.9 | 29.0 | 0.00 | 0.00 | 0.00 | 28 | 1010.6 |
| 20260504214128 | 19 | 0 | 24.1 | 38.6 | 0.00 | 0.00 | 0.00 | 30 | 1010.5 |
| 20260504213625 | 20 | 19 | 22.5 | 38.6 | 0.00 | 0.00 | 0.00 | 29 | 1010.9 |
| 20260504213122 | 20 | 350 | 19.3 | 33.8 | 0.00 | 0.00 | 0.00 | 28 | 1011.0 |
| 20260504212618 | 20 | 356 | 22.5 | 29.0 | 0.00 | 0.00 | 0.00 | 28 | 1010.9 |
| 20260504212115 | 20 | 349 | 24.1 | 33.8 | 0.00 | 0.00 | 0.00 | 30 | 1011.0 |
| 20260504211613 | 19 | 26 | 22.5 | 25.7 | 0.00 | 0.00 | 0.00 | 30 | 1011.1 |
| 20260504211109 | 18 | 320 | 19.3 | 32.2 | 0.00 | 0.00 | 0.00 | 31 | 1011.1 |
| 20260504210607 | 17 | 28 | 22.5 | 40.2 | 0.00 | 0.00 | 0.00 | 32 | 1010.9 |
| 20260504205601 | 17 | 358 | 24.1 | 35.4 | 0.00 | 0.00 | 0.00 | 34 | 1010.7 |
| 20260504205058 | 18 | 16 | 19.3 | 25.7 | 0.00 | 0.00 | 0.00 | 33 | 1010.7 |
| 20260504204556 | 18 | 338 | 14.5 | 17.7 | 0.00 | 0.00 | 0.00 | 28 | 1010.9 |
| 20260504204055 | 19 | 333 | 14.5 | 17.7 | 0.00 | 0.00 | 0.00 | 26 | 1010.9 |
| 20260504203553 | 19 | 354 | 8.0 | 16.1 | 0.00 | 0.00 | 0.00 | 26 | 1010.4 |
| 20260504203050 | 20 | 28 | 12.9 | 20.9 | 0.00 | 0.00 | 0.00 | 25 | 1010.5 |
| 20260504202545 | 20 | 11 | 22.5 | 32.2 | 0.00 | 0.00 | 0.00 | 25 | 1009.9 |
| 20260504202042 | 21 | 11 | 22.5 | 38.6 | 0.00 | 0.00 | 0.00 | 23 | 1009.6 |
| 20260504201539 | 22 | 24 | 22.5 | 32.2 | 0.00 | 0.00 | 0.00 | 22 | 1009.7 |
| 20260504201037 | 22 | 314 | 17.7 | 20.9 | 0.00 | 0.00 | 0.00 | 22 | 1009.7 |
| 20260504200533 | 22 | 300 | 12.9 | 24.1 | 0.00 | 0.00 | 0.00 | 20 | 1009.7 |
| 20260504200030 | 22 | 14 | 8.0 | 12.9 | 0.00 | 0.00 | 0.00 | 20 | 1009.9 |
| 20260504195526 | 22 | 344 | 19.3 | 27.4 | 0.00 | 0.00 | 0.00 | 19 | 1009.7 |
| 20260504195023 | 22 | 346 | 16.1 | 24.1 | 0.00 | 0.00 | 0.00 | 20 | 1010.0 |
| 20260504194519 | 22 | 321 | 20.9 | 27.4 | 0.00 | 0.00 | 0.00 | 19 | 1009.8 |
| 20260504194015 | 22 | 305 | 8.0 | 12.9 | 0.00 | 0.00 | 0.00 | 19 | 1010.0 |
| 20260504193512 | 23 | 331 | 20.9 | 25.7 | 0.00 | 0.00 | 0.00 | 18 | 1009.7 |
| 20260504193011 | 22 | 357 | 19.3 | 20.9 | 0.00 | 0.00 | 0.00 | 18 | 1009.7 |
| 20260504192509 | 22 | 302 | 16.1 | 25.7 | 0.00 | 0.00 | 0.00 | 18 | 1009.5 |
| 20260504192007 | 22 | 304 | 11.3 | 17.7 | 0.00 | 0.00 | 0.00 | 18 | 1009.7 |
| 20260504191504 | 22 | 319 | 12.9 | 24.1 | 0.00 | 0.00 | 0.00 | 18 | 1009.6 |
| 20260504190959 | 22 | 336 | 16.1 | 27.4 | 0.00 | 0.00 | 0.00 | 19 | 1009.7 |
| 20260504190455 | 22 | 329 | 11.3 | 24.1 | 0.00 | 0.00 | 0.00 | 19 | 1009.6 |
| 20260504185952 | 22 | 294 | 19.3 | 27.4 | 0.00 | 0.00 | 0.00 | 19 | 1009.8 |
| 20260504185449 | 22 | 325 | 6.4 | 12.9 | 0.00 | 0.00 | 0.00 | 19 | 1009.8 |
| 20260504184945 | 23 | 310 | 20.9 | 27.4 | 0.00 | 0.00 | 0.00 | 18 | 1009.8 |
| 20260504184441 | 23 | 357 | 14.5 | 24.1 | 0.00 | 0.00 | 0.00 | 20 | 1009.8 |
| 20260504183937 | 22 | 296 | 19.3 | 27.4 | 0.00 | 0.00 | 0.00 | 20 | 1010.0 |
| 20260504183434 | 22 | 311 | 20.9 | 29.0 | 0.00 | 0.00 | 0.00 | 17 | 1009.8 |
| 20260504182932 | 23 | 318 | 20.9 | 29.0 | 0.00 | 0.00 | 0.00 | 18 | 1009.8 |
| 20260504182429 | 22 | 349 | 19.3 | 29.0 | 0.00 | 0.00 | 0.00 | 19 | 1009.9 |
| 20260504181926 | 23 | 287 | 14.5 | 27.4 | 0.00 | 0.00 | 0.00 | 19 | 1010.3 |
| 20260504181423 | 23 | 279 | 19.3 | 29.0 | 0.00 | 0.00 | 0.00 | 17 | 1010.0 |
| 20260504180922 | 22 | 294 | 24.1 | 37.0 | 0.00 | 0.00 | 0.00 | 18 | 1010.4 |
| 20260504180420 | 22 | 317 | 27.4 | 32.2 | 0.00 | 0.00 | 0.00 | 20 | 1010.4 |
| 20260504175918 | 22 | 296 | 24.1 | 33.8 | 0.00 | 0.00 | 0.00 | 20 | 1010.3 |
| 20260504175415 | 23 | 302 | 27.4 | 35.4 | 0.00 | 0.00 | 0.00 | 19 | 1010.3 |
| 20260504174913 | 23 | 294 | 27.4 | 35.4 | 0.00 | 0.00 | 0.00 | 18 | 1010.5 |
| 20260504174410 | 22 | 268 | 22.5 | 32.2 | 0.00 | 0.00 | 0.00 | 20 | 1010.5 |
| 20260504173907 | 22 | 281 | 20.9 | 32.2 | 0.00 | 0.00 | 0.00 | 21 | 1010.6 |
| 20260504173403 | 22 | 281 | 20.9 | 35.4 | 0.00 | 0.00 | 0.00 | 23 | 1010.6 |
| 20260504172901 | 22 | 277 | 25.7 | 33.8 | 0.00 | 0.00 | 0.00 | 21 | 1010.9 |
| 20260504172357 | 22 | 301 | 24.1 | 32.2 | 0.00 | 0.00 | 0.00 | 22 | 1011.0 |